Normed Bremen — 9HPG8 — position and weather

sailwx.info

Track history (hours):
 
Tides and Currents Weather Stations Pressure Air Temp Water Temp Dewpoint Dewpoint Depression Visibility Wind Speed Wind Dir Waves Ship Positions

Normed Bremen

Last reported at 2014-Jul-15 20:26 UTC. Time now 2014-Jul-23 13:39 UTC.
Position N 39°33' W 010°10'.

Type: Cargo ship. MMSI: 256240000.

Date/timePositionNaut miles runAvg speedWind from/ knotsBaromVisibWave heightAir tempDewpointWater temp
2014-Jul-15 20:26N 39°33' W 010°10'1011.4
2014-Jul-15 19:33N 39°24' W 010°17'1212.2
2014-Jul-15 18:32N 39°13' W 010°23'1212.2
2014-Jul-15 17:33N 39°01' W 010°28'1312.5
2014-Jul-15 16:33N 38°50' W 010°34'1312.7
2014-Jul-15 15:33N 38°38' W 010°39'1212.2
2014-Jul-15 14:33N 38°26' W 010°45'1212.0
2014-Jul-15 13:32N 38°15' W 010°50'1212.2
2014-Jul-15 12:33N 38°04' W 010°55'1512.2
2014-Jul-15 11:17N 37°49' W 011°02'1012.3
2014-Jul-15 10:29N 37°40' W 011°07'1212.2
2014-Jul-15 09:33N 37°29' W 011°12'1312.1
2014-Jul-15 08:27N 37°17' W 011°18'1212.3
2014-Jul-15 07:31N 37°06' W 011°23'15811.9
2014-Jul-14 18:16N 34°38' W 012°31'912.1
2014-Jul-14 17:32N 34°30' W 012°35'2712.3
2014-Jul-14 15:22N 34°05' W 012°46'4911.9
2014-Jul-14 11:15N 33°19' W 013°06'  
Track history (hours):
 
Tides and Currents Weather Stations Pressure Air Temp Water Temp Dewpoint Dewpoint Depression Visibility Wind Speed Wind Dir Waves Ship Positions

Normed Bremen

Last reported at 2014-Jul-15 20:26 UTC. Time now 2014-Jul-23 13:39 UTC.
Position N 39°33' W 010°10'.

Type: Cargo ship. MMSI: 256240000.

Date/timePositionNaut miles runAvg speedWind from/ knotsBaromVisibWave heightAir tempDewpointWater temp
2014-Jul-15 20:26N 39°33' W 010°10'1011.4
2014-Jul-15 19:33N 39°24' W 010°17'1212.2
2014-Jul-15 18:32N 39°13' W 010°23'1212.2
2014-Jul-15 17:33N 39°01' W 010°28'1312.5
2014-Jul-15 16:33N 38°50' W 010°34'1312.7
2014-Jul-15 15:33N 38°38' W 010°39'1212.2
2014-Jul-15 14:33N 38°26' W 010°45'1212.0
2014-Jul-15 13:32N 38°15' W 010°50'1212.2
2014-Jul-15 12:33N 38°04' W 010°55'1512.2
2014-Jul-15 11:17N 37°49' W 011°02'1012.3
2014-Jul-15 10:29N 37°40' W 011°07'1212.2
2014-Jul-15 09:33N 37°29' W 011°12'1312.1
2014-Jul-15 08:27N 37°17' W 011°18'1212.3
2014-Jul-15 07:31N 37°06' W 011°23'15811.9
2014-Jul-14 18:16N 34°38' W 012°31'912.1
2014-Jul-14 17:32N 34°30' W 012°35'2712.3
2014-Jul-14 15:22N 34°05' W 012°46'4911.9
2014-Jul-14 11:15N 33°19' W 013°06'  

Dump ship's entire track history